sensor_id;sensor_type;location;lat;lon;timestamp;temperature;humidity
25140;DHT22;39015;48.106;-1.682;2023-01-20T17:39:10;11.30;72.20
25140;DHT22;39015;48.106;-1.682;2023-01-20T17:41:37;11.40;72.20
25140;DHT22;39015;48.106;-1.682;2023-01-20T17:44:05;11.40;72.10
25140;DHT22;39015;48.106;-1.682;2023-01-20T17:46:32;11.40;72.10
25140;DHT22;39015;48.106;-1.682;2023-01-20T17:49:00;11.40;72.00
25140;DHT22;39015;48.106;-1.682;2023-01-20T17:51:29;11.40;72.00
25140;DHT22;39015;48.106;-1.682;2023-01-20T17:53:57;11.40;71.90
25140;DHT22;39015;48.106;-1.682;2023-01-20T17:56:26;11.40;71.80
25140;DHT22;39015;48.106;-1.682;2023-01-20T17:58:54;11.40;71.80
25140;DHT22;39015;48.106;-1.682;2023-01-20T18:01:22;11.40;71.80
25140;DHT22;39015;48.106;-1.682;2023-01-20T18:03:50;11.40;71.80
25140;DHT22;39015;48.106;-1.682;2023-01-20T18:06:19;11.40;71.70
25140;DHT22;39015;48.106;-1.682;2023-01-20T18:08:50;11.40;71.60
25140;DHT22;39015;48.106;-1.682;2023-01-20T18:11:17;11.40;71.70
25140;DHT22;39015;48.106;-1.682;2023-01-20T18:13:49;11.40;71.60
25140;DHT22;39015;48.106;-1.682;2023-01-20T18:16:18;11.40;71.60
25140;DHT22;39015;48.106;-1.682;2023-01-20T18:18:49;11.40;71.60
25140;DHT22;39015;48.106;-1.682;2023-01-20T18:21:28;11.40;71.60
25140;DHT22;39015;48.106;-1.682;2023-01-20T18:23:56;11.40;71.50
25140;DHT22;39015;48.106;-1.682;2023-01-20T18:26:26;11.40;71.50
25140;DHT22;39015;48.106;-1.682;2023-01-20T18:28:56;11.40;71.50
25140;DHT22;39015;48.106;-1.682;2023-01-20T18:31:24;11.40;71.40
25140;DHT22;39015;48.106;-1.682;2023-01-20T18:33:54;11.40;71.40
25140;DHT22;39015;48.106;-1.682;2023-01-20T18:36:23;11.40;71.40
25140;DHT22;39015;48.106;-1.682;2023-01-20T18:38:51;11.40;71.40
25140;DHT22;39015;48.106;-1.682;2023-01-20T18:41:21;11.40;71.40
25140;DHT22;39015;48.106;-1.682;2023-01-20T18:43:48;11.30;71.40
25140;DHT22;39015;48.106;-1.682;2023-01-20T18:46:17;11.30;71.40
25140;DHT22;39015;48.106;-1.682;2023-01-20T18:48:45;11.30;71.30
25140;DHT22;39015;48.106;-1.682;2023-01-20T18:51:15;11.30;71.40
25140;DHT22;39015;48.106;-1.682;2023-01-20T18:53:46;11.30;71.30
25140;DHT22;39015;48.106;-1.682;2023-01-20T18:56:15;11.30;71.20
25140;DHT22;39015;48.106;-1.682;2023-01-20T18:58:42;11.30;71.10
25140;DHT22;39015;48.106;-1.682;2023-01-20T19:01:14;11.30;71.10
25140;DHT22;39015;48.106;-1.682;2023-01-20T19:03:42;11.30;71.00
25140;DHT22;39015;48.106;-1.682;2023-01-20T19:06:12;11.30;71.00
25140;DHT22;39015;48.106;-1.682;2023-01-20T19:08:41;11.30;70.90
25140;DHT22;39015;48.106;-1.682;2023-01-20T19:11:10;11.30;70.80
25140;DHT22;39015;48.106;-1.682;2023-01-20T19:13:39;11.30;70.80
25140;DHT22;39015;48.106;-1.682;2023-01-20T19:16:06;11.30;70.80
25140;DHT22;39015;48.106;-1.682;2023-01-20T19:18:35;11.20;70.80
25140;DHT22;39015;48.106;-1.682;2023-01-20T19:21:05;11.30;70.90
25140;DHT22;39015;48.106;-1.682;2023-01-20T19:23:33;11.30;70.80
25140;DHT22;39015;48.106;-1.682;2023-01-20T19:26:01;11.20;70.70
25140;DHT22;39015;48.106;-1.682;2023-01-20T19:28:29;11.20;70.70
25140;DHT22;39015;48.106;-1.682;2023-01-20T19:31:03;11.20;70.70
25140;DHT22;39015;48.106;-1.682;2023-01-20T19:33:34;11.20;70.70
25140;DHT22;39015;48.106;-1.682;2023-01-20T19:36:06;11.10;70.60
25140;DHT22;39015;48.106;-1.682;2023-01-20T19:38:35;11.10;70.70
25140;DHT22;39015;48.106;-1.682;2023-01-20T19:41:05;11.10;70.60
25140;DHT22;39015;48.106;-1.682;2023-01-20T19:43:33;11.10;70.60
25140;DHT22;39015;48.106;-1.682;2023-01-20T19:46:00;11.10;70.60
25140;DHT22;39015;48.106;-1.682;2023-01-20T19:48:28;11.10;70.60
25140;DHT22;39015;48.106;-1.682;2023-01-20T19:51:00;11.10;70.60
25140;DHT22;39015;48.106;-1.682;2023-01-20T19:53:29;11.10;70.50
25140;DHT22;39015;48.106;-1.682;2023-01-20T19:56:00;11.10;70.40
25140;DHT22;39015;48.106;-1.682;2023-01-20T19:58:28;11.10;70.40
25140;DHT22;39015;48.106;-1.682;2023-01-20T20:01:04;11.10;70.40
25140;DHT22;39015;48.106;-1.682;2023-01-20T20:03:32;11.10;70.40
25140;DHT22;39015;48.106;-1.682;2023-01-20T20:05:59;11.10;70.40
25140;DHT22;39015;48.106;-1.682;2023-01-20T20:08:26;11.00;70.30
25140;DHT22;39015;48.106;-1.682;2023-01-20T20:10:56;11.00;70.40
25140;DHT22;39015;48.106;-1.682;2023-01-20T20:13:23;11.10;70.40
25140;DHT22;39015;48.106;-1.682;2023-01-20T20:15:58;11.10;70.40
25140;DHT22;39015;48.106;-1.682;2023-01-20T20:18:26;11.10;71.40
25140;DHT22;39015;48.106;-1.682;2023-01-20T20:20:54;11.10;70.30
25140;DHT22;39015;48.106;-1.682;2023-01-20T20:23:21;11.10;70.30
25140;DHT22;39015;48.106;-1.682;2023-01-20T20:25:49;11.10;70.20
25140;DHT22;39015;48.106;-1.682;2023-01-20T20:28:19;11.00;70.10
25140;DHT22;39015;48.106;-1.682;2023-01-20T20:30:48;11.00;70.20
25140;DHT22;39015;48.106;-1.682;2023-01-20T20:33:15;11.00;70.10
25140;DHT22;39015;48.106;-1.682;2023-01-20T20:35:44;11.10;70.00
25140;DHT22;39015;48.106;-1.682;2023-01-20T20:38:11;11.00;70.00
25140;DHT22;39015;48.106;-1.682;2023-01-20T20:40:38;11.00;69.90
25140;DHT22;39015;48.106;-1.682;2023-01-20T20:43:05;11.00;69.80
25140;DHT22;39015;48.106;-1.682;2023-01-20T20:45:34;11.10;69.80
25140;DHT22;39015;48.106;-1.682;2023-01-20T20:48:01;11.10;69.80
25140;DHT22;39015;48.106;-1.682;2023-01-20T20:50:27;11.10;69.60
25140;DHT22;39015;48.106;-1.682;2023-01-20T20:52:55;11.10;69.50
25140;DHT22;39015;48.106;-1.682;2023-01-20T20:55:22;11.10;69.50
25140;DHT22;39015;48.106;-1.682;2023-01-20T20:57:57;11.10;69.50
25140;DHT22;39015;48.106;-1.682;2023-01-20T21:00:26;11.10;69.40
25140;DHT22;39015;48.106;-1.682;2023-01-20T21:02:57;11.10;69.40
25140;DHT22;39015;48.106;-1.682;2023-01-20T21:05:24;11.00;69.40
